Aérodrome :
LOGIN :

S'inscrire | Disclaimer

   EN    FR    IT 

 










Légende :    VFR   VFR Marginal   IFR   IFR Intensif   IFR Très Intensif
Visi : 
Plafond : 
>= 8 km
>= 3000ft
5 à 8 km
1000 à 3000 ft
1500m à 5 km
500 à 1000 ft
800 à 1500m
200 à 500 ft
< 800m
< 200 ft
Symboles :   Orages  Brouillard  Fortes neiges  Fortes précipitations  Vent > 20 kt
SIGMETs :   Divers  Orages  Givrage  Turbulence  Onde Orograph.  Cendres Volcan.






- Altitude de l'aérodrome : 1234 ft
- Code IATA : LUX


ELLX - Luxembourg Findel

DERNIER METAR :
  • 171250Z 23014KT 210V270 9999 BKN016 08/05 Q1016 NOSIG

METARs EXPIRÉS :
  • 171220Z 23013KT 9999 SCT013 BKN018 07/05 Q1016 NOSIG
  • 171150Z 22011KT 9999 SCT013 BKN016 07/05 Q1016 NOSIG
  • 171120Z 22011KT 9999 SCT009 BKN013 06/05 Q1016 NOSIG
  • 171050Z 22010KT 9999 SCT019 BKN022 06/04 Q1017 NOSIG
  • 171020Z 21009KT 170V240 9999 FEW011 BKN027 06/03 Q1016 NOSIG

TAF TAF ELLX
Valide du 17 à 12h jusqu'au 18 à 18h UTC


171100Z 1712/1818 22010G20KT 9999 BKN020
TEMPO 1714/1802 24015G30KT SHRA BKN015TCU
PROB30 1714/1718 BKN012CB
BECMG 1803/1805 BKN010
BECMG 1807/1810 BKN018
TEMPO 1812/1818 23015G30KT SHRA BKN012TCU
ATIS : +352 4798 27300
Météo : +352 4798 27010 / 27050



MET'MAP, la Météo Aéronautique d'un coup d'oeil ! - Copyright ORBIFLY Décembre 2007 - Disclaimer

ORBIFLY MET'MAP TEAM :

Programmation & Développement : Alexandra Zaïnal
Sur une idée originale de : Baudouin d'Aumeries
Assistance à la programmation : Marc-Olivier Méhu
Soutien technique & logistique : Manuel Goepfert

Contact : metmap@orbifly.com




SOURCES & CREDITS :

   NOAA